createdAt,value
2018-12-18T00:01:49.852Z,22.17
2018-12-18T00:04:20.402Z,21.00
2018-12-18T00:06:51.542Z,18.43
2018-12-18T00:09:22.086Z,17.43
2018-12-18T00:11:59.157Z,17.83
2018-12-18T00:14:25.967Z,15.23
2018-12-18T00:16:56.725Z,12.17
2018-12-18T00:19:27.573Z,9.73
2018-12-18T00:21:58.412Z,10.00
2018-12-18T00:24:29.572Z,9.87
2018-12-18T00:27:00.075Z,8.67
2018-12-18T00:29:31.293Z,8.60
2018-12-18T00:32:02.615Z,7.83
2018-12-18T00:34:33.359Z,8.90
2018-12-18T00:37:04.502Z,8.50
2018-12-18T00:39:35.339Z,8.77
2018-12-18T00:42:08.698Z,9.67
2018-12-18T00:44:39.885Z,9.20
2018-12-18T00:47:10.589Z,9.13
2018-12-18T00:49:41.414Z,9.50
2018-12-18T00:52:12.381Z,9.77
2018-12-18T00:54:42.995Z,10.13
2018-12-18T00:57:13.691Z,9.50
2018-12-18T00:59:44.484Z,9.27
2018-12-18T01:02:15.120Z,9.40
2018-12-18T01:04:47.125Z,9.90
2018-12-18T01:07:18.336Z,10.97
2018-12-18T01:09:49.682Z,10.30
2018-12-18T01:12:20.538Z,10.00
2018-12-18T01:14:51.239Z,9.90
2018-12-18T01:17:21.947Z,10.63
2018-12-18T01:19:52.906Z,11.70
2018-12-18T01:22:24.032Z,11.17
2018-12-18T01:24:54.863Z,10.50
2018-12-18T01:27:25.694Z,11.13
2018-12-18T01:29:56.646Z,10.27
2018-12-18T01:32:27.994Z,10.10
2018-12-18T01:34:58.687Z,10.47
2018-12-18T01:37:29.712Z,9.60
2018-12-18T01:40:00.267Z,10.73
2018-12-18T01:42:31.259Z,11.13
2018-12-18T01:45:02.063Z,11.77
2018-12-18T01:47:33.427Z,10.53
2018-12-18T01:50:05.382Z,11.47
2018-12-18T01:52:36.253Z,11.50
2018-12-18T01:55:07.703Z,12.67
2018-12-18T01:57:38.467Z,12.03
2018-12-18T02:00:09.702Z,12.00
2018-12-18T02:02:40.489Z,11.50
2018-12-18T02:05:11.161Z,11.47
2018-12-18T02:07:41.910Z,11.40
2018-12-18T02:10:14.117Z,13.53
2018-12-18T02:12:52.147Z,13.70
2018-12-18T02:15:42.523Z,13.80
2018-12-18T02:18:13.510Z,12.97
2018-12-18T02:20:47.215Z,13.23
2018-12-18T02:23:18.564Z,13.50
2018-12-18T02:25:49.119Z,15.17
2018-12-18T02:28:20.551Z,14.50
2018-12-18T02:30:51.657Z,14.97
2018-12-18T02:33:36.020Z,14.67
2018-12-18T02:36:23.988Z,16.50
2018-12-18T02:38:54.574Z,14.73
2018-12-18T02:41:27.321Z,17.23
2018-12-18T02:43:58.698Z,17.90
2018-12-18T02:46:29.875Z,18.60
2018-12-18T02:49:00.685Z,18.53
2018-12-18T02:51:31.353Z,16.70
2018-12-18T02:54:02.363Z,17.03
2018-12-18T02:56:33.222Z,17.97
2018-12-18T02:59:04.519Z,15.80
2018-12-18T03:01:35.434Z,17.50
2018-12-18T03:04:06.370Z,16.60
2018-12-18T03:06:36.891Z,13.97
2018-12-18T03:09:08.303Z,16.50
2018-12-18T03:11:39.141Z,13.67
2018-12-18T03:14:10.001Z,13.43
2018-12-18T03:16:40.817Z,13.63
2018-12-18T03:19:12.907Z,12.17
2018-12-18T03:21:43.416Z,11.27
2018-12-18T03:24:14.532Z,11.60
2018-12-18T03:26:45.550Z,12.10
2018-12-18T03:29:17.042Z,11.67
2018-12-18T03:31:53.086Z,11.10
2018-12-18T03:34:28.242Z,10.07
2018-12-18T03:36:57.225Z,10.40
2018-12-18T03:39:28.327Z,11.00
2018-12-18T03:41:59.138Z,11.17
2018-12-18T03:44:29.842Z,11.10
2018-12-18T03:47:01.013Z,12.10
2018-12-18T03:49:31.889Z,11.13
2018-12-18T03:52:02.465Z,11.60
2018-12-18T03:54:34.346Z,11.17
2018-12-18T03:57:05.594Z,10.30
2018-12-18T03:59:36.416Z,11.50
2018-12-18T04:02:07.276Z,12.03
2018-12-18T04:04:38.207Z,12.10
2018-12-18T04:07:09.289Z,10.87
2018-12-18T04:09:40.735Z,12.17
2018-12-18T04:12:16.012Z,12.20
2018-12-18T04:14:46.967Z,12.73
2018-12-18T04:17:18.126Z,12.03
2018-12-18T04:19:48.926Z,12.13
2018-12-18T04:22:20.400Z,10.50
2018-12-18T04:24:51.547Z,12.33
2018-12-18T04:27:22.087Z,11.97
2018-12-18T04:29:52.758Z,11.70
2018-12-18T04:32:23.630Z,11.97
2018-12-18T04:34:55.411Z,11.93
2018-12-18T04:37:26.063Z,10.87
2018-12-18T04:39:57.200Z,11.43
2018-12-18T04:42:28.363Z,12.50
2018-12-18T04:44:59.812Z,11.33
2018-12-18T04:47:30.604Z,11.70
2018-12-18T04:50:01.802Z,10.70
2018-12-18T04:52:33.403Z,10.10
2018-12-18T04:55:04.727Z,11.20
2018-12-18T04:57:35.611Z,10.93
2018-12-18T05:00:08.158Z,11.13
2018-12-18T05:02:38.991Z,11.23
2018-12-18T05:05:09.687Z,10.70
2018-12-18T05:07:40.394Z,10.67
2018-12-18T05:10:12.130Z,11.70
2018-12-18T05:12:43.291Z,11.40
2018-12-18T05:15:14.477Z,12.00
2018-12-18T05:17:45.271Z,12.00
2018-12-18T05:20:16.110Z,11.80
2018-12-18T05:23:12.466Z,12.10
2018-12-18T05:25:43.307Z,12.40
2018-12-18T05:28:14.442Z,12.97
2018-12-18T05:30:45.132Z,12.23
2018-12-18T05:33:16.233Z,13.60
2018-12-18T05:35:47.242Z,12.87
2018-12-18T05:38:19.036Z,13.03
2018-12-18T05:40:54.209Z,13.53
2018-12-18T05:43:24.971Z,13.60
2018-12-18T05:45:55.574Z,13.07
2018-12-18T05:48:27.199Z,12.17
2018-12-18T05:50:58.373Z,13.30
2018-12-18T05:53:40.957Z,13.30
2018-12-18T05:56:11.643Z,13.37
2018-12-18T05:58:42.599Z,13.03
2018-12-18T06:01:13.805Z,13.40
2018-12-18T06:03:44.807Z,14.17
2018-12-18T06:06:15.330Z,12.77
2018-12-18T06:08:45.853Z,12.57
2018-12-18T06:11:17.047Z,11.93
2018-12-18T06:13:47.852Z,12.40
2018-12-18T06:16:18.589Z,12.17
2018-12-18T06:18:49.515Z,12.70
2018-12-18T06:21:20.057Z,11.00
2018-12-18T06:23:51.222Z,12.50
2018-12-18T06:26:22.418Z,12.33
2018-12-18T06:28:53.260Z,12.00
2018-12-18T06:31:40.732Z,12.53
2018-12-18T06:34:12.079Z,13.70
2018-12-18T06:36:42.970Z,13.83
2018-12-18T06:39:14.433Z,14.93
2018-12-18T06:41:46.081Z,15.37
2018-12-18T06:44:17.070Z,14.47
2018-12-18T06:46:48.565Z,14.23
2018-12-18T06:49:19.721Z,14.93
2018-12-18T06:51:50.612Z,14.67
2018-12-18T06:54:21.767Z,14.63
2018-12-18T06:56:52.973Z,15.57
2018-12-18T06:59:23.582Z,15.50
2018-12-18T07:01:54.405Z,14.53
2018-12-18T07:04:25.200Z,15.40
2018-12-18T07:06:56.206Z,15.63
2018-12-18T07:09:27.265Z,14.37
2018-12-18T07:11:58.198Z,14.20
2018-12-18T07:14:29.679Z,14.80
2018-12-18T07:17:18.849Z,13.50
2018-12-18T07:19:49.678Z,14.17
2018-12-18T07:22:20.471Z,13.63
2018-12-18T07:24:51.450Z,12.40
2018-12-18T07:27:22.754Z,13.50
2018-12-18T07:29:53.590Z,14.40
2018-12-18T07:32:24.546Z,12.90
2018-12-18T07:34:55.270Z,12.43
2018-12-18T07:37:26.122Z,15.00
2018-12-18T07:39:56.943Z,12.60
2018-12-18T07:42:27.789Z,13.17
2018-12-18T07:44:58.356Z,12.00
2018-12-18T07:47:29.134Z,12.57
2018-12-18T07:50:00.600Z,13.73
2018-12-18T07:52:32.368Z,14.47
2018-12-18T07:55:03.727Z,13.03
2018-12-18T07:57:34.495Z,13.30
2018-12-18T08:00:05.690Z,13.60
2018-12-18T08:02:36.786Z,11.80
2018-12-18T08:05:08.446Z,11.70
2018-12-18T08:07:39.328Z,12.40
2018-12-18T08:10:10.232Z,12.00
2018-12-18T08:12:40.763Z,12.60
2018-12-18T08:15:12.089Z,13.17
2018-12-18T08:17:42.875Z,12.80
2018-12-18T08:20:13.676Z,12.47
2018-12-18T08:22:57.782Z,11.87
2018-12-18T08:25:48.667Z,12.20
2018-12-18T08:28:19.417Z,11.20
2018-12-18T08:30:50.103Z,11.67
2018-12-18T08:33:21.367Z,12.70
2018-12-18T08:35:52.079Z,11.60
2018-12-18T08:38:23.317Z,12.40
2018-12-18T08:40:54.723Z,12.20
2018-12-18T08:43:25.423Z,13.50
2018-12-18T08:45:56.190Z,12.83
2018-12-18T08:48:28.204Z,12.80
2018-12-18T08:50:59.354Z,11.60
2018-12-18T08:53:30.712Z,12.60
2018-12-18T08:56:03.228Z,12.13
2018-12-18T08:58:34.083Z,12.00
2018-12-18T09:01:05.227Z,11.87
2018-12-18T09:03:35.817Z,12.27
2018-12-18T09:06:06.964Z,12.00
2018-12-18T09:08:38.053Z,12.27
2018-12-18T09:11:09.303Z,19.03
2018-12-18T09:13:40.030Z,12.77
2018-12-18T09:16:16.199Z,13.43
2018-12-18T09:18:47.214Z,12.90
2018-12-18T09:21:17.924Z,13.47
2018-12-18T09:23:49.332Z,12.70
2018-12-18T09:26:20.346Z,12.63
2018-12-18T09:28:51.291Z,12.60
2018-12-18T09:31:22.026Z,13.23
2018-12-18T09:33:53.650Z,14.33
2018-12-18T09:36:24.163Z,17.40
2018-12-18T09:39:00.395Z,19.60
2018-12-18T09:41:35.643Z,32.30
2018-12-18T09:44:11.392Z,12.47
2018-12-18T09:46:52.957Z,15.80
2018-12-18T09:49:31.751Z,15.97
2018-12-18T09:52:03.065Z,13.57
2018-12-18T09:54:34.763Z,12.50
2018-12-18T09:57:09.224Z,48.10
2018-12-18T09:59:40.916Z,13.23
2018-12-18T10:02:12.302Z,11.40
2018-12-18T10:04:43.758Z,12.10
2018-12-18T10:07:14.986Z,26.70
2018-12-18T10:09:45.760Z,11.87
2018-12-18T10:12:20.731Z,13.77
2018-12-18T10:14:51.731Z,12.13
2018-12-18T10:17:22.749Z,12.40
2018-12-18T10:19:53.483Z,11.50
2018-12-18T10:22:24.388Z,11.80
2018-12-18T10:24:55.155Z,11.67
2018-12-18T10:27:26.559Z,10.57
2018-12-18T10:29:57.363Z,10.80
2018-12-18T10:32:28.281Z,11.07
2018-12-18T10:34:59.326Z,11.10
2018-12-18T10:37:30.038Z,19.07
2018-12-18T10:40:00.923Z,13.43
2018-12-18T10:42:32.773Z,11.60
2018-12-18T10:45:03.770Z,11.20
2018-12-18T10:47:34.878Z,10.57
2018-12-18T10:50:07.014Z,11.73
2018-12-18T10:52:37.941Z,9.97
2018-12-18T10:55:09.573Z,10.23
2018-12-18T10:57:41.063Z,10.50
2018-12-18T11:03:04.958Z,10.23
2018-12-18T11:05:37.468Z,8.90
2018-12-18T11:08:08.097Z,10.43
2018-12-18T11:10:38.954Z,11.73
2018-12-18T11:13:15.625Z,10.70
2018-12-18T11:16:01.788Z,12.50
2018-12-18T11:18:35.489Z,10.93
2018-12-18T11:21:06.396Z,11.37
2018-12-18T11:23:37.164Z,10.60
2018-12-18T11:26:14.916Z,10.57
2018-12-18T11:28:51.348Z,10.63
2018-12-18T11:31:34.271Z,10.20
2018-12-18T11:34:04.799Z,10.23
2018-12-18T11:36:35.620Z,9.90
2018-12-18T11:39:08.244Z,8.80
2018-12-18T11:41:39.435Z,8.83
2018-12-18T11:44:10.226Z,8.73
2018-12-18T11:46:41.370Z,10.03
2018-12-18T11:49:12.442Z,10.27
2018-12-18T11:51:43.338Z,10.40
2018-12-18T11:54:15.455Z,10.23
2018-12-18T11:56:47.173Z,10.50
2018-12-18T11:59:23.960Z,10.20
2018-12-18T12:02:16.699Z,9.20
2018-12-18T12:04:47.347Z,9.90
2018-12-18T12:07:18.240Z,10.10
2018-12-18T12:09:51.797Z,10.63
2018-12-18T12:12:28.045Z,9.70
2018-12-18T12:15:00.439Z,10.40
2018-12-18T12:17:34.129Z,11.23
2018-12-18T12:20:05.823Z,10.23
2018-12-18T12:22:36.662Z,11.53
2018-12-18T12:25:10.187Z,11.30
2018-12-18T12:27:46.911Z,10.70
2018-12-18T12:33:12.780Z,9.37
2018-12-18T12:35:43.339Z,9.67
2018-12-18T12:38:14.379Z,10.10
2018-12-18T12:40:45.109Z,9.90
2018-12-18T12:43:19.653Z,10.73
2018-12-18T12:45:50.603Z,10.03
2018-12-18T12:48:23.831Z,10.03
2018-12-18T12:50:55.109Z,10.50
2018-12-18T12:53:26.131Z,10.10
2018-12-18T12:55:58.364Z,32.97
2018-12-18T12:58:29.035Z,9.23
2018-12-18T13:01:00.179Z,10.37
2018-12-18T13:03:32.245Z,7.97
2018-12-18T13:06:03.371Z,7.57
2018-12-18T13:08:36.980Z,11.23
2018-12-18T13:11:08.842Z,8.80
2018-12-18T13:13:40.213Z,9.83
2018-12-18T13:16:11.038Z,8.43
2018-12-18T13:18:42.183Z,8.50
2018-12-18T13:21:13.487Z,7.57
2018-12-18T13:23:44.688Z,13.70
2018-12-18T13:26:15.507Z,9.37
2018-12-18T13:28:46.249Z,7.63
2018-12-18T13:31:16.808Z,7.83
2018-12-18T13:33:47.513Z,19.87
2018-12-18T13:36:19.026Z,21.33
2018-12-18T13:38:50.205Z,23.63
2018-12-18T13:41:20.867Z,21.03
2018-12-18T13:43:52.124Z,21.77
2018-12-18T13:49:29.761Z,26.17
2018-12-18T13:52:00.457Z,27.70
2018-12-18T13:54:31.307Z,26.77
2018-12-18T13:57:03.693Z,28.43
2018-12-18T13:59:35.681Z,28.23
2018-12-18T14:02:06.603Z,27.50
2018-12-18T14:04:37.340Z,29.10
2018-12-18T14:07:08.034Z,28.00
2018-12-18T14:09:38.920Z,27.70
2018-12-18T14:12:09.697Z,25.33
2018-12-18T14:14:40.409Z,26.13
2018-12-18T14:17:11.223Z,26.90
2018-12-18T14:19:41.911Z,28.03
2018-12-18T14:22:12.801Z,29.23
2018-12-18T14:24:43.571Z,27.70
2018-12-18T14:27:16.728Z,26.10
2018-12-18T14:29:49.244Z,28.07
2018-12-18T14:32:19.782Z,32.03
2018-12-18T14:34:51.405Z,27.20
2018-12-18T14:37:23.394Z,26.20
2018-12-18T14:39:55.235Z,28.33
2018-12-18T14:42:28.313Z,26.83
2018-12-18T14:44:59.494Z,27.03
2018-12-18T14:47:31.721Z,27.60
2018-12-18T14:50:02.875Z,29.07
2018-12-18T14:52:33.556Z,28.27
2018-12-18T14:55:04.711Z,29.63
2018-12-18T14:57:35.689Z,27.37
2018-12-18T15:00:07.331Z,28.13
2018-12-18T15:02:38.058Z,29.10
2018-12-18T15:05:08.958Z,28.63
2018-12-18T15:07:39.802Z,29.27
2018-12-18T15:10:10.499Z,26.67
2018-12-18T15:12:46.658Z,28.20
2018-12-18T15:15:35.540Z,28.70
2018-12-18T15:18:13.743Z,31.80
2018-12-18T15:20:57.322Z,29.47
2018-12-18T15:23:29.459Z,27.20
2018-12-18T15:26:01.640Z,27.20
2018-12-18T15:28:32.890Z,27.37
2018-12-18T15:31:03.835Z,26.67
2018-12-18T15:33:34.743Z,30.70
2018-12-18T15:36:05.737Z,28.77
2018-12-18T15:38:36.541Z,29.37
2018-12-18T15:41:22.991Z,28.77
2018-12-18T15:43:53.822Z,29.23
2018-12-18T15:46:24.898Z,28.37
2018-12-18T15:48:55.555Z,28.40
2018-12-18T15:51:26.461Z,29.60
2018-12-18T15:53:57.228Z,29.40
2018-12-18T15:56:27.909Z,30.47
2018-12-18T15:58:58.599Z,29.23
2018-12-18T16:01:29.694Z,28.93
2018-12-18T16:04:00.588Z,29.93
2018-12-18T16:06:31.420Z,31.17
2018-12-18T16:09:02.468Z,28.93
2018-12-18T16:11:33.417Z,28.37
2018-12-18T16:14:04.055Z,27.87
2018-12-18T16:16:34.782Z,27.40
2018-12-18T16:19:05.364Z,27.03
2018-12-18T16:21:36.341Z,29.70
2018-12-18T16:24:07.286Z,31.00
2018-12-18T16:26:38.074Z,29.60
2018-12-18T16:29:08.906Z,28.33
2018-12-18T16:31:39.658Z,28.30
2018-12-18T16:34:10.710Z,28.33
2018-12-18T16:36:41.650Z,26.20
2018-12-18T16:39:12.629Z,29.57
2018-12-18T16:41:43.794Z,27.83
2018-12-18T16:44:14.591Z,29.87
2018-12-18T16:46:47.536Z,30.37
2018-12-18T16:49:18.422Z,29.77
2018-12-18T16:51:49.655Z,29.70
2018-12-18T16:54:21.261Z,28.40
2018-12-18T16:56:52.019Z,28.70
2018-12-18T16:59:24.663Z,28.80
2018-12-18T17:01:55.930Z,32.87
2018-12-18T17:04:27.740Z,37.73
2018-12-18T17:06:58.418Z,35.20
2018-12-18T17:09:29.555Z,34.80
2018-12-18T17:12:00.617Z,36.53
2018-12-18T17:14:31.417Z,33.90
2018-12-18T17:17:03.611Z,34.03
2018-12-18T17:19:35.016Z,32.73
2018-12-18T17:22:05.748Z,32.20
2018-12-18T17:24:36.590Z,34.73
2018-12-18T17:27:07.863Z,32.13
2018-12-18T17:29:38.425Z,31.70
2018-12-18T17:32:09.444Z,28.67
2018-12-18T17:34:39.924Z,28.80
2018-12-18T17:37:10.624Z,34.13
2018-12-18T17:39:41.447Z,32.00
2018-12-18T17:42:12.058Z,29.70
2018-12-18T17:44:44.694Z,29.67
2018-12-18T17:47:15.691Z,28.83
2018-12-18T17:49:46.512Z,29.37
2018-12-18T17:52:17.686Z,30.53
2018-12-18T17:54:48.501Z,29.00
2018-12-18T17:57:19.268Z,30.30
2018-12-18T17:59:50.171Z,30.47
2018-12-18T18:02:20.852Z,27.93
2018-12-18T18:04:51.829Z,26.40
2018-12-18T18:07:23.870Z,32.30
2018-12-18T18:09:54.759Z,30.47
2018-12-18T18:12:29.931Z,32.80
2018-12-18T18:14:57.943Z,37.00
2018-12-18T18:17:28.830Z,36.07
2018-12-18T18:20:00.405Z,34.00
2018-12-18T18:22:31.823Z,33.33
2018-12-18T18:25:02.839Z,41.63
2018-12-18T18:27:34.159Z,39.30
2018-12-18T18:30:06.035Z,42.43
2018-12-18T18:32:36.948Z,39.47
2018-12-18T18:35:07.912Z,37.93
2018-12-18T18:37:38.509Z,34.27
2018-12-18T18:40:10.036Z,37.13
2018-12-18T18:42:40.822Z,34.00
2018-12-18T18:45:13.035Z,35.43
2018-12-18T18:48:06.790Z,35.80
2018-12-18T18:50:37.441Z,37.80
2018-12-18T18:53:08.488Z,35.93
2018-12-18T18:55:49.742Z,38.93
2018-12-18T18:58:20.704Z,32.80
2018-12-18T19:00:51.749Z,31.83
2018-12-18T19:03:22.370Z,33.47
2018-12-18T19:06:04.002Z,33.33
2018-12-18T19:08:35.636Z,30.83
2018-12-18T19:11:06.308Z,31.47
2018-12-18T19:13:37.279Z,32.17
2018-12-18T19:16:08.022Z,32.50
2018-12-18T19:18:38.990Z,33.27
2018-12-18T19:21:10.194Z,30.00
2018-12-18T19:23:40.779Z,32.00
2018-12-18T19:26:11.449Z,40.50
2018-12-18T19:28:42.676Z,32.67
2018-12-18T19:31:13.744Z,33.03
2018-12-18T19:33:44.526Z,35.30
2018-12-18T19:36:16.070Z,37.00
2018-12-18T19:38:46.874Z,34.77
2018-12-18T19:41:17.654Z,34.67
2018-12-18T19:43:48.620Z,32.10
2018-12-18T19:46:20.630Z,32.50
2018-12-18T19:48:51.327Z,33.80
2018-12-18T19:51:22.531Z,32.13
2018-12-18T19:53:53.475Z,34.80
2018-12-18T19:56:25.243Z,34.77
2018-12-18T19:58:56.584Z,30.47
2018-12-18T20:01:28.354Z,29.70
2018-12-18T20:03:59.295Z,36.80
2018-12-18T20:06:30.993Z,30.27
2018-12-18T20:09:06.253Z,28.17
2018-12-18T20:11:37.221Z,26.50
2018-12-18T20:14:09.196Z,27.73
2018-12-18T20:16:40.857Z,29.20
2018-12-18T20:19:11.913Z,30.67
2018-12-18T20:21:44.831Z,31.80
2018-12-18T20:24:15.854Z,28.13
2018-12-18T20:26:46.686Z,27.63
2018-12-18T20:29:18.851Z,29.77
2018-12-18T20:31:49.872Z,29.63
2018-12-18T20:34:20.940Z,31.57
2018-12-18T20:36:51.775Z,33.47
2018-12-18T20:39:22.675Z,31.80
2018-12-18T20:41:53.769Z,44.70
2018-12-18T20:44:26.118Z,37.10
2018-12-18T20:46:57.059Z,37.90
2018-12-18T20:49:28.307Z,32.67
2018-12-18T20:52:00.050Z,34.47
2018-12-18T20:54:31.583Z,32.33
2018-12-18T20:57:02.743Z,31.10
2018-12-18T20:59:33.482Z,30.43
2018-12-18T21:02:04.543Z,30.03
2018-12-18T21:04:35.497Z,31.63
2018-12-18T21:07:08.124Z,31.47
2018-12-18T21:09:41.560Z,30.63
2018-12-18T21:12:12.593Z,30.03
2018-12-18T21:14:43.511Z,30.50
2018-12-18T21:17:14.880Z,30.60
2018-12-18T21:19:46.259Z,29.40
2018-12-18T21:22:18.883Z,31.20
2018-12-18T21:24:49.859Z,31.67
2018-12-18T21:27:21.098Z,32.23
2018-12-18T21:29:51.962Z,32.77
2018-12-18T21:32:22.587Z,30.30
2018-12-18T21:34:53.300Z,29.60
2018-12-18T21:37:25.104Z,34.83
2018-12-18T21:39:56.753Z,30.40
2018-12-18T21:42:27.476Z,29.73
2018-12-18T21:44:58.831Z,30.60
2018-12-18T21:47:29.695Z,28.23
2018-12-18T21:50:00.525Z,28.40
2018-12-18T21:52:31.094Z,28.23
2018-12-18T21:55:02.620Z,28.73
2018-12-18T21:57:34.665Z,25.50
2018-12-18T22:00:08.958Z,26.67
2018-12-18T22:02:40.169Z,26.67
2018-12-18T22:05:11.455Z,26.90
2018-12-18T22:07:44.330Z,28.30
2018-12-18T22:10:18.829Z,31.47
2018-12-18T22:13:05.738Z,28.90
2018-12-18T22:15:38.010Z,28.93
2018-12-18T22:18:09.348Z,26.40
2018-12-18T22:20:47.457Z,29.23
2018-12-18T22:23:19.021Z,26.90
2018-12-18T22:25:57.437Z,27.30
2018-12-18T22:28:28.410Z,26.63
2018-12-18T22:31:01.679Z,29.20
2018-12-18T22:33:35.675Z,28.40
2018-12-18T22:36:06.974Z,27.80
2018-12-18T22:38:43.552Z,28.97
2018-12-18T22:41:12.370Z,29.30
2018-12-18T22:43:43.456Z,27.83
2018-12-18T22:46:15.614Z,26.97
2018-12-18T22:48:47.276Z,73.90
2018-12-18T22:51:19.020Z,30.40
2018-12-18T22:53:49.635Z,30.70
2018-12-18T22:56:20.370Z,28.20
2018-12-18T22:58:51.833Z,27.77
2018-12-18T23:01:28.240Z,30.70
2018-12-18T23:03:58.934Z,29.17
2018-12-18T23:06:31.359Z,28.83
2018-12-18T23:09:04.579Z,29.47
2018-12-18T23:11:35.833Z,31.50
2018-12-18T23:14:07.825Z,30.10
2018-12-18T23:16:40.993Z,31.93
2018-12-18T23:19:12.356Z,31.37
2018-12-18T23:21:43.251Z,30.40
2018-12-18T23:24:13.821Z,31.20
2018-12-18T23:26:45.062Z,32.00
2018-12-18T23:29:17.802Z,53.07
2018-12-18T23:31:49.508Z,33.17
2018-12-18T23:34:21.396Z,30.23
2018-12-18T23:36:52.254Z,33.60
2018-12-18T23:39:23.111Z,31.70
2018-12-18T23:41:54.089Z,31.57
2018-12-18T23:44:24.901Z,32.00
2018-12-18T23:46:55.810Z,32.53
2018-12-18T23:49:26.549Z,35.80
2018-12-18T23:51:57.639Z,36.10
2018-12-18T23:54:29.242Z,37.30
2018-12-18T23:57:00.610Z,36.47
2018-12-18T23:59:31.391Z,38.83
